Sitia, Greece

6:27 PM EET on February 10, 2016 (GMT +0200)
Piskokefalo | | Change Station
CLOSE
Current Station
Personal Weather Station
Location: Sitia, CRETE
Elevation: 141 ft
Nearby Weather Stations

Elev 141 ft 35.18 °N, 26.10 °E | Updated 45 seconds ago

Scattered Clouds
Scattered Clouds
59.0 °F
Feels Like 59.0 °F
N
11.4
Wind Variable Wind from SE
Gusts 19.0 mph

Today
High -- | Low -- °F
--% Chance of Precip.
Yesterday
High -- | Low -- °F
Precip. -- in
Pressure 29.98 in
Visibility 6.2 miles
Clouds Scattered Clouds 2500 ft
Scattered Clouds 8000 ft
Dew Point 53 °F
Humidity 80%
Rainfall 0.00 in
Snow Depth Not available.
7:07 AM 5:52 PM
Waxing Crescent, 6% visible
METAR LGIR 101620Z 19012KT 9999 SCT025 SCT080 16/09 Q1015 NOSIG
Pressure 29.98 in
Visibility 6.2 miles
Clouds Scattered Clouds 2500 ft
Scattered Clouds 8000 ft
Dew Point 53 °F
Humidity 80%
Rainfall 0.00 in
Snow Depth Not available.
7:07 AM 5:52 PM
Waxing Crescent, 6% visible
METAR LGIR 101620Z 19012KT 9999 SCT025 SCT080 16/09 Q1015 NOSIG

10-Day Weather Forecast

Almanac

Astronomy

Feb. 10, 2016 Rise Set
Actual Time
Civil Twilight
Nautical Twilight
Astronomical Twilight
Moon
Length of Visible Light
Length of Day
Tomorrow will be .
, % of the Moon is Illuminated

Today's Extremes

Country Highs Country Lows

Community

WunderPhotos

Upload Photos

1,891,881 photos uploaded!

WunderBlog® & News

Nearby

Air Quality

  Air Quality AQ Index Pollutant
Not available.

Snow Depth

Station Depth Elevation

Earthquake Activity

City Distance Mag. Time & Date
Minimum magnitude displayed is 2.5.

Coastal Water Temperatures

Place Temperature

Stations

Nearby Weather Stations

Station Location Temp. Windchill Dew Point Humidity Wind Precip. Elev Updated Type